Friday, May 25, 2018, 8:19 PM EDT
Back to Local

KPOU, Poughkeepsie Dutchess Cty

Location: Wappingers Falls, NY, United States Lat: 41.633
Local Time: 8:19 PM EDT ( 0:19 GMT) Lon: -73.883
Time Zone: US/Eastern Elev: 167 ft

Show me the last for .
Show Decoded

2018-05-25 19:53 METAR KPOU 252353Z 23005KT 10SM CLR 28/13 A2979 RMK AO2 SLP082 T02780133 10311
                 20278 55004 =
2018-05-25 18:53 METAR KPOU 252253Z 22010G17KT 10SM CLR 29/12 A2978 RMK AO2 SLP080 T02940122 =
2018-05-25 17:53 METAR KPOU 252153Z 23009KT 10SM CLR 30/11 A2979 RMK AO2 SLP082 T03000111 =
2018-05-25 16:53 METAR KPOU 252053Z 21011KT 10SM CLR 31/10 A2980 RMK AO2 SLP086 T03060100 56024 =
2018-05-25 15:53 METAR KPOU 251953Z 26011KT 10SM CLR 31/08 A2981 RMK AO2 SLP091 T03110083 =
2018-05-25 14:53 METAR KPOU 251853Z 26012KT 10SM CLR 30/11 A2984 RMK AO2 SLP101 T03000106 =
2018-05-25 13:53 METAR KPOU 251753Z 24009G18KT 10SM CLR 30/10 A2987 RMK AO2 SLP110 T03000100
                 10300 20194 56030 =
2018-05-25 12:53 METAR KPOU 251653Z VRB05KT 10SM CLR 28/12 A2990 RMK AO2 SLP121 T02780117 =
2018-05-25 11:53 METAR KPOU 251553Z 21008KT 10SM CLR 27/12 A2993 RMK AO2 SLP130 T02670117 =
2018-05-25 10:53 METAR KPOU 251453Z VRB04KT 10SM CLR 25/13 A2996 RMK AO2 SLP141 T02500128 58016 =
2018-05-25 09:53 METAR KPOU 251353Z 23005KT 10SM CLR 23/12 A2998 RMK AO2 SLP149 T02330117 =
2018-05-25 08:53 METAR KPOU 251253Z 22005KT 10SM CLR 21/11 A3001 RMK AO2 SLP156 T02110106 =
2018-05-25 07:53 METAR KPOU 251153Z 22005KT 10SM CLR 19/11 A3001 RMK AO2 SLP157 T01940106 10194
                 20106 58004 =
2018-05-25 06:53 METAR KPOU 251053Z 00000KT 10SM CLR 16/12 A3002 RMK AO2 SLP160 T01560117 =
2018-05-25 05:53 METAR KPOU 250953Z AUTO 00000KT 10SM CLR 11/09 A3002 RMK AO2 SLP163 T01110094 =
2018-05-25 04:53 METAR KPOU 250853Z AUTO 00000KT 10SM CLR 11/09 A3002 RMK AO2 SLP161 T01110094
                 56009 =
2018-05-25 03:53 METAR KPOU 250753Z AUTO 00000KT 10SM CLR 11/10 A3003 RMK AO2 SLP163 T01110100 =
2018-05-25 02:53 METAR KPOU 250653Z AUTO 00000KT 10SM CLR 12/10 A3003 RMK AO2 SLP166 T01170100 =
2018-05-25 01:53 METAR KPOU 250553Z AUTO 00000KT 10SM CLR 12/11 A3005 RMK AO2 SLP170 T01220106
                 10222 20122 58003 =
2018-05-25 00:53 METAR KPOU 250453Z AUTO 00000KT 10SM CLR 13/10 A3005 RMK AO2 SLP172 T01280100
                 402780094 =
2018-05-24 23:53 METAR KPOU 250353Z AUTO 00000KT 10SM CLR 13/11 A3006 RMK AO2 SLP174 T01330106 =
2018-05-24 22:53 METAR KPOU 250253Z AUTO 00000KT 10SM CLR 15/12 A3006 RMK AO2 SLP173 T01500117
                 53009 =
2018-05-24 21:53 METAR KPOU 250153Z 00000KT 10SM CLR 17/11 A3005 RMK AO2 SLP171 T01670111 =
2018-05-24 20:53 METAR KPOU 250053Z 00000KT 10SM CLR 19/12 A3003 RMK AO2 SLP165 T01890117 =

Support USWX by starting your Amazon purchase here.